sensor_id;sensor_type;location;lat;lon;timestamp;temperature;humidity
30399;DHT22;17195;50.838;7.214;2022-09-09T00:00:43;16.10;99.90
30399;DHT22;17195;50.838;7.214;2022-09-09T00:03:19;16.00;99.90
30399;DHT22;17195;50.838;7.214;2022-09-09T00:08:58;15.80;99.90
30399;DHT22;17195;50.838;7.214;2022-09-09T00:11:40;15.70;99.90
30399;DHT22;17195;50.838;7.214;2022-09-09T00:14:26;15.70;99.90
30399;DHT22;17195;50.838;7.214;2022-09-09T00:16:55;15.60;99.90
30399;DHT22;17195;50.838;7.214;2022-09-09T00:19:46;15.50;99.90
30399;DHT22;17195;50.838;7.214;2022-09-09T00:22:18;15.40;99.90
30399;DHT22;17195;50.838;7.214;2022-09-09T00:24:52;15.40;99.90
30399;DHT22;17195;50.838;7.214;2022-09-09T00:27:24;15.30;99.90
30399;DHT22;17195;50.838;7.214;2022-09-09T00:30:12;15.30;99.90
30399;DHT22;17195;50.838;7.214;2022-09-09T00:32:39;15.20;99.90
30399;DHT22;17195;50.838;7.214;2022-09-09T00:37:57;15.10;99.90
30399;DHT22;17195;50.838;7.214;2022-09-09T00:40:34;15.10;99.90
30399;DHT22;17195;50.838;7.214;2022-09-09T00:43:06;15.00;99.90
30399;DHT22;17195;50.838;7.214;2022-09-09T00:51:13;14.80;99.90
30399;DHT22;17195;50.838;7.214;2022-09-09T00:56:45;14.80;99.90
30399;DHT22;17195;50.838;7.214;2022-09-09T00:59:57;14.90;99.90
30399;DHT22;17195;50.838;7.214;2022-09-09T01:04:49;14.90;99.90
30399;DHT22;17195;50.838;7.214;2022-09-09T01:07:17;15.00;99.90
30399;DHT22;17195;50.838;7.214;2022-09-09T01:09:56;15.00;99.90
30399;DHT22;17195;50.838;7.214;2022-09-09T01:12:42;15.10;99.90
30399;DHT22;17195;50.838;7.214;2022-09-09T01:15:22;15.10;99.90
30399;DHT22;17195;50.838;7.214;2022-09-09T01:18:06;15.20;99.90
30399;DHT22;17195;50.838;7.214;2022-09-09T01:21:09;15.20;99.90
30399;DHT22;17195;50.838;7.214;2022-09-09T01:26:32;15.40;99.90
30399;DHT22;17195;50.838;7.214;2022-09-09T01:28:59;15.40;99.90
30399;DHT22;17195;50.838;7.214;2022-09-09T01:31:42;15.40;99.90
30399;DHT22;17195;50.838;7.214;2022-09-09T01:34:16;15.30;99.90
30399;DHT22;17195;50.838;7.214;2022-09-09T01:39:07;15.30;99.90
30399;DHT22;17195;50.838;7.214;2022-09-09T01:41:33;15.40;99.90
30399;DHT22;17195;50.838;7.214;2022-09-09T01:43:59;15.40;99.90
30399;DHT22;17195;50.838;7.214;2022-09-09T01:46:24;15.50;99.90
30399;DHT22;17195;50.838;7.214;2022-09-09T01:48:52;15.50;99.90
30399;DHT22;17195;50.838;7.214;2022-09-09T01:51:18;15.50;99.90
30399;DHT22;17195;50.838;7.214;2022-09-09T01:53:45;15.50;99.90
30399;DHT22;17195;50.838;7.214;2022-09-09T02:06:46;15.70;99.90
30399;DHT22;17195;50.838;7.214;2022-09-09T02:09:15;15.70;99.90
30399;DHT22;17195;50.838;7.214;2022-09-09T02:11:45;15.70;99.90
30399;DHT22;17195;50.838;7.214;2022-09-09T02:14:21;15.70;99.90
30399;DHT22;17195;50.838;7.214;2022-09-09T02:16:55;15.70;99.90
30399;DHT22;17195;50.838;7.214;2022-09-09T02:19:27;15.70;99.90
30399;DHT22;17195;50.838;7.214;2022-09-09T02:21:55;15.70;99.90
30399;DHT22;17195;50.838;7.214;2022-09-09T02:24:21;15.80;99.90
30399;DHT22;17195;50.838;7.214;2022-09-09T02:26:50;15.80;99.90
30399;DHT22;17195;50.838;7.214;2022-09-09T02:29:27;15.80;99.90
30399;DHT22;17195;50.838;7.214;2022-09-09T02:31:56;15.80;99.90
30399;DHT22;17195;50.838;7.214;2022-09-09T02:34:23;15.90;99.90
30399;DHT22;17195;50.838;7.214;2022-09-09T02:36:50;15.90;99.90
30399;DHT22;17195;50.838;7.214;2022-09-09T02:39:18;15.90;99.90
30399;DHT22;17195;50.838;7.214;2022-09-09T02:41:44;15.90;99.90
30399;DHT22;17195;50.838;7.214;2022-09-09T02:44:15;16.00;99.90
30399;DHT22;17195;50.838;7.214;2022-09-09T02:50:08;16.00;99.90
30399;DHT22;17195;50.838;7.214;2022-09-09T02:55:47;16.20;99.90
30399;DHT22;17195;50.838;7.214;2022-09-09T02:58:18;16.10;99.90
30399;DHT22;17195;50.838;7.214;2022-09-09T03:00:45;16.10;99.90
30399;DHT22;17195;50.838;7.214;2022-09-09T03:03:12;16.10;99.90
30399;DHT22;17195;50.838;7.214;2022-09-09T03:05:38;16.00;99.90
30399;DHT22;17195;50.838;7.214;2022-09-09T03:08:04;16.00;99.90
30399;DHT22;17195;50.838;7.214;2022-09-09T03:10:31;16.00;99.90
30399;DHT22;17195;50.838;7.214;2022-09-09T03:12:57;16.00;99.90
30399;DHT22;17195;50.838;7.214;2022-09-09T03:15:22;16.10;99.90
30399;DHT22;17195;50.838;7.214;2022-09-09T03:17:48;16.10;99.90
30399;DHT22;17195;50.838;7.214;2022-09-09T03:20:13;16.10;99.90
30399;DHT22;17195;50.838;7.214;2022-09-09T03:22:39;16.10;99.90
30399;DHT22;17195;50.838;7.214;2022-09-09T03:25:06;16.00;99.90
30399;DHT22;17195;50.838;7.214;2022-09-09T03:27:32;16.10;99.90
30399;DHT22;17195;50.838;7.214;2022-09-09T03:29:58;16.00;99.90
30399;DHT22;17195;50.838;7.214;2022-09-09T03:32:24;16.10;99.90
30399;DHT22;17195;50.838;7.214;2022-09-09T03:34:51;16.10;99.90
30399;DHT22;17195;50.838;7.214;2022-09-09T03:37:18;16.20;99.90
30399;DHT22;17195;50.838;7.214;2022-09-09T03:39:44;16.20;99.90
30399;DHT22;17195;50.838;7.214;2022-09-09T03:42:12;16.20;99.90
30399;DHT22;17195;50.838;7.214;2022-09-09T03:44:39;16.30;99.90
30399;DHT22;17195;50.838;7.214;2022-09-09T03:47:05;16.30;99.90
30399;DHT22;17195;50.838;7.214;2022-09-09T03:49:31;16.30;99.90
30399;DHT22;17195;50.838;7.214;2022-09-09T03:51:57;16.30;99.90
30399;DHT22;17195;50.838;7.214;2022-09-09T03:54:24;16.30;99.90
30399;DHT22;17195;50.838;7.214;2022-09-09T03:56:50;16.30;99.90
30399;DHT22;17195;50.838;7.214;2022-09-09T03:59:16;16.30;99.90
30399;DHT22;17195;50.838;7.214;2022-09-09T04:01:41;16.20;99.90
30399;DHT22;17195;50.838;7.214;2022-09-09T04:04:07;16.20;99.90
30399;DHT22;17195;50.838;7.214;2022-09-09T04:06:33;16.20;99.90
30399;DHT22;17195;50.838;7.214;2022-09-09T04:08:58;16.20;99.90
30399;DHT22;17195;50.838;7.214;2022-09-09T04:11:24;16.20;99.90
30399;DHT22;17195;50.838;7.214;2022-09-09T04:13:50;16.30;99.90
30399;DHT22;17195;50.838;7.214;2022-09-09T04:16:15;16.30;99.90
30399;DHT22;17195;50.838;7.214;2022-09-09T04:18:41;16.30;99.90
30399;DHT22;17195;50.838;7.214;2022-09-09T04:21:09;16.30;99.90
30399;DHT22;17195;50.838;7.214;2022-09-09T04:23:35;16.30;99.90
30399;DHT22;17195;50.838;7.214;2022-09-09T04:26:01;16.30;99.90
30399;DHT22;17195;50.838;7.214;2022-09-09T04:28:30;16.30;99.90
30399;DHT22;17195;50.838;7.214;2022-09-09T04:30:56;16.30;99.90
30399;DHT22;17195;50.838;7.214;2022-09-09T04:33:25;16.40;99.90
30399;DHT22;17195;50.838;7.214;2022-09-09T04:35:52;16.40;99.90
30399;DHT22;17195;50.838;7.214;2022-09-09T04:38:19;16.40;99.90
30399;DHT22;17195;50.838;7.214;2022-09-09T04:40:49;16.50;99.90
30399;DHT22;17195;50.838;7.214;2022-09-09T04:43:15;16.50;99.90
30399;DHT22;17195;50.838;7.214;2022-09-09T04:45:41;16.40;99.90
30399;DHT22;17195;50.838;7.214;2022-09-09T04:48:07;16.40;99.90
30399;DHT22;17195;50.838;7.214;2022-09-09T04:50:34;16.40;99.90
30399;DHT22;17195;50.838;7.214;2022-09-09T04:53:01;16.40;99.90
30399;DHT22;17195;50.838;7.214;2022-09-09T04:55:27;16.40;99.90
30399;DHT22;17195;50.838;7.214;2022-09-09T04:57:53;16.40;99.90
30399;DHT22;17195;50.838;7.214;2022-09-09T05:00:19;16.30;99.90
30399;DHT22;17195;50.838;7.214;2022-09-09T05:02:44;16.30;99.90
30399;DHT22;17195;50.838;7.214;2022-09-09T05:05:10;16.30;99.90
30399;DHT22;17195;50.838;7.214;2022-09-09T05:07:36;16.30;99.90
30399;DHT22;17195;50.838;7.214;2022-09-09T05:10:02;16.30;99.90
30399;DHT22;17195;50.838;7.214;2022-09-09T05:12:31;16.30;99.90
30399;DHT22;17195;50.838;7.214;2022-09-09T05:14:57;16.30;99.90
30399;DHT22;17195;50.838;7.214;2022-09-09T05:17:23;16.30;99.90
30399;DHT22;17195;50.838;7.214;2022-09-09T05:19:49;16.30;99.90
30399;DHT22;17195;50.838;7.214;2022-09-09T05:22:21;16.30;99.90
30399;DHT22;17195;50.838;7.214;2022-09-09T05:24:49;16.30;99.90
30399;DHT22;17195;50.838;7.214;2022-09-09T05:27:17;16.30;99.90
30399;DHT22;17195;50.838;7.214;2022-09-09T05:29:44;16.30;99.90
30399;DHT22;17195;50.838;7.214;2022-09-09T05:32:10;16.30;99.90
30399;DHT22;17195;50.838;7.214;2022-09-09T05:34:36;16.40;99.90
30399;DHT22;17195;50.838;7.214;2022-09-09T05:37:03;16.40;99.90
30399;DHT22;17195;50.838;7.214;2022-09-09T05:39:29;16.50;99.90
30399;DHT22;17195;50.838;7.214;2022-09-09T05:41:55;16.50;99.90
30399;DHT22;17195;50.838;7.214;2022-09-09T05:44:21;16.50;99.90
30399;DHT22;17195;50.838;7.214;2022-09-09T05:46:48;16.50;99.90
30399;DHT22;17195;50.838;7.214;2022-09-09T05:49:14;16.50;99.90
30399;DHT22;17195;50.838;7.214;2022-09-09T05:51:41;16.50;99.90
30399;DHT22;17195;50.838;7.214;2022-09-09T05:54:08;16.50;99.90
30399;DHT22;17195;50.838;7.214;2022-09-09T05:56:33;16.50;99.90
30399;DHT22;17195;50.838;7.214;2022-09-09T05:58:59;16.50;99.90
30399;DHT22;17195;50.838;7.214;2022-09-09T06:01:28;16.50;99.90
30399;DHT22;17195;50.838;7.214;2022-09-09T06:03:54;16.50;99.90
30399;DHT22;17195;50.838;7.214;2022-09-09T06:06:25;16.50;99.90
30399;DHT22;17195;50.838;7.214;2022-09-09T06:08:53;16.50;99.90
30399;DHT22;17195;50.838;7.214;2022-09-09T06:11:21;16.50;99.90
30399;DHT22;17195;50.838;7.214;2022-09-09T06:13:47;16.60;99.90
30399;DHT22;17195;50.838;7.214;2022-09-09T06:16:15;16.60;99.90
30399;DHT22;17195;50.838;7.214;2022-09-09T06:18:41;16.70;99.90
30399;DHT22;17195;50.838;7.214;2022-09-09T06:21:11;16.80;99.90
30399;DHT22;17195;50.838;7.214;2022-09-09T06:23:40;16.90;99.90
30399;DHT22;17195;50.838;7.214;2022-09-09T06:26:09;17.10;99.90
30399;DHT22;17195;50.838;7.214;2022-09-09T06:28:36;17.20;99.90
30399;DHT22;17195;50.838;7.214;2022-09-09T06:31:07;17.30;99.90
30399;DHT22;17195;50.838;7.214;2022-09-09T06:33:35;17.40;99.90
30399;DHT22;17195;50.838;7.214;2022-09-09T06:36:01;17.50;99.90
30399;DHT22;17195;50.838;7.214;2022-09-09T06:38:27;17.60;99.90
30399;DHT22;17195;50.838;7.214;2022-09-09T06:40:58;17.70;99.90
30399;DHT22;17195;50.838;7.214;2022-09-09T06:43:24;17.80;99.90
30399;DHT22;17195;50.838;7.214;2022-09-09T06:48:22;18.10;99.90
30399;DHT22;17195;50.838;7.214;2022-09-09T06:50:48;18.20;99.90
30399;DHT22;17195;50.838;7.214;2022-09-09T06:53:18;18.30;99.90
30399;DHT22;17195;50.838;7.214;2022-09-09T06:55:46;18.40;99.90
30399;DHT22;17195;50.838;7.214;2022-09-09T06:58:13;18.30;99.90
30399;DHT22;17195;50.838;7.214;2022-09-09T07:00:38;18.20;99.90
30399;DHT22;17195;50.838;7.214;2022-09-09T07:03:04;18.10;99.90
30399;DHT22;17195;50.838;7.214;2022-09-09T07:05:31;18.10;99.90
30399;DHT22;17195;50.838;7.214;2022-09-09T07:07:57;18.10;99.90
30399;DHT22;17195;50.838;7.214;2022-09-09T07:10:23;18.10;99.90
30399;DHT22;17195;50.838;7.214;2022-09-09T07:12:51;18.10;99.90
30399;DHT22;17195;50.838;7.214;2022-09-09T07:15:18;18.10;99.90
30399;DHT22;17195;50.838;7.214;2022-09-09T07:17:44;18.10;99.90
30399;DHT22;17195;50.838;7.214;2022-09-09T07:20:10;18.10;99.90
30399;DHT22;17195;50.838;7.214;2022-09-09T07:22:35;18.10;99.90
30399;DHT22;17195;50.838;7.214;2022-09-09T07:25:01;18.20;99.90
30399;DHT22;17195;50.838;7.214;2022-09-09T07:27:27;18.20;99.90
30399;DHT22;17195;50.838;7.214;2022-09-09T07:29:53;18.30;99.90
30399;DHT22;17195;50.838;7.214;2022-09-09T07:32:20;18.40;99.90
30399;DHT22;17195;50.838;7.214;2022-09-09T07:34:46;18.40;99.90
30399;DHT22;17195;50.838;7.214;2022-09-09T07:37:13;18.50;99.90
30399;DHT22;17195;50.838;7.214;2022-09-09T07:39:39;18.60;99.90
30399;DHT22;17195;50.838;7.214;2022-09-09T07:42:05;18.80;99.90
30399;DHT22;17195;50.838;7.214;2022-09-09T07:44:31;18.90;99.90
30399;DHT22;17195;50.838;7.214;2022-09-09T07:47:01;19.10;99.90
30399;DHT22;17195;50.838;7.214;2022-09-09T07:49:26;19.10;99.90
30399;DHT22;17195;50.838;7.214;2022-09-09T07:51:52;19.10;99.90
30399;DHT22;17195;50.838;7.214;2022-09-09T07:54:19;19.30;99.90
30399;DHT22;17195;50.838;7.214;2022-09-09T07:56:46;19.40;99.90
30399;DHT22;17195;50.838;7.214;2022-09-09T07:59:12;19.50;99.90
30399;DHT22;17195;50.838;7.214;2022-09-09T08:01:40;19.50;99.90
30399;DHT22;17195;50.838;7.214;2022-09-09T08:04:08;19.50;99.90
30399;DHT22;17195;50.838;7.214;2022-09-09T08:06:39;19.60;99.90
30399;DHT22;17195;50.838;7.214;2022-09-09T08:09:05;19.60;99.90
30399;DHT22;17195;50.838;7.214;2022-09-09T08:11:31;19.40;99.90
30399;DHT22;17195;50.838;7.214;2022-09-09T08:13:58;19.20;99.90
30399;DHT22;17195;50.838;7.214;2022-09-09T08:16:29;19.10;99.90
30399;DHT22;17195;50.838;7.214;2022-09-09T08:18:56;19.00;99.90
30399;DHT22;17195;50.838;7.214;2022-09-09T08:21:24;19.00;99.90
30399;DHT22;17195;50.838;7.214;2022-09-09T08:23:51;19.00;99.90
30399;DHT22;17195;50.838;7.214;2022-09-09T08:26:18;19.00;99.90
30399;DHT22;17195;50.838;7.214;2022-09-09T08:28:48;19.00;99.90
30399;DHT22;17195;50.838;7.214;2022-09-09T08:31:20;19.10;99.90
30399;DHT22;17195;50.838;7.214;2022-09-09T08:33:47;19.30;99.90
30399;DHT22;17195;50.838;7.214;2022-09-09T08:36:14;19.40;99.90
30399;DHT22;17195;50.838;7.214;2022-09-09T08:38:46;19.70;99.90
30399;DHT22;17195;50.838;7.214;2022-09-09T08:47:09;20.30;99.90
30399;DHT22;17195;50.838;7.214;2022-09-09T08:52:23;20.00;99.90
30399;DHT22;17195;50.838;7.214;2022-09-09T08:54:53;19.90;99.90
30399;DHT22;17195;50.838;7.214;2022-09-09T08:57:25;20.00;99.90
30399;DHT22;17195;50.838;7.214;2022-09-09T08:59:52;20.10;99.90
30399;DHT22;17195;50.838;7.214;2022-09-09T09:02:46;20.40;99.90
30399;DHT22;17195;50.838;7.214;2022-09-09T09:10:54;20.80;99.90
30399;DHT22;17195;50.838;7.214;2022-09-09T09:15:55;20.80;99.90
30399;DHT22;17195;50.838;7.214;2022-09-09T09:18:23;20.80;99.90
30399;DHT22;17195;50.838;7.214;2022-09-09T09:20:56;20.80;99.90
30399;DHT22;17195;50.838;7.214;2022-09-09T09:23:25;20.70;99.90
30399;DHT22;17195;50.838;7.214;2022-09-09T09:25:56;20.60;99.90
30399;DHT22;17195;50.838;7.214;2022-09-09T09:28:29;20.50;99.90
30399;DHT22;17195;50.838;7.214;2022-09-09T09:31:04;20.60;99.90
30399;DHT22;17195;50.838;7.214;2022-09-09T09:35:59;20.80;99.90
30399;DHT22;17195;50.838;7.214;2022-09-09T09:38:27;20.70;99.90
30399;DHT22;17195;50.838;7.214;2022-09-09T09:40:55;20.60;99.90
30399;DHT22;17195;50.838;7.214;2022-09-09T09:43:34;20.60;99.90
30399;DHT22;17195;50.838;7.214;2022-09-09T09:46:00;20.50;99.90
30399;DHT22;17195;50.838;7.214;2022-09-09T09:48:28;20.50;99.90
30399;DHT22;17195;50.838;7.214;2022-09-09T09:50:59;20.50;99.90
30399;DHT22;17195;50.838;7.214;2022-09-09T09:53:34;20.50;99.90
30399;DHT22;17195;50.838;7.214;2022-09-09T09:58:26;20.60;99.90
30399;DHT22;17195;50.838;7.214;2022-09-09T10:00:53;20.70;99.90
30399;DHT22;17195;50.838;7.214;2022-09-09T10:03:29;20.70;99.90
30399;DHT22;17195;50.838;7.214;2022-09-09T10:05:55;20.70;99.90
30399;DHT22;17195;50.838;7.214;2022-09-09T10:08:27;20.70;99.90
30399;DHT22;17195;50.838;7.214;2022-09-09T10:14:20;20.90;99.90
30399;DHT22;17195;50.838;7.214;2022-09-09T10:16:59;21.10;99.90
30399;DHT22;17195;50.838;7.214;2022-09-09T10:19:34;21.40;99.90
30399;DHT22;17195;50.838;7.214;2022-09-09T10:22:28;21.40;99.90
30399;DHT22;17195;50.838;7.214;2022-09-09T10:30:17;22.10;99.90
30399;DHT22;17195;50.838;7.214;2022-09-09T10:32:49;22.40;99.90
30399;DHT22;17195;50.838;7.214;2022-09-09T10:38:18;22.20;99.90
30399;DHT22;17195;50.838;7.214;2022-09-09T10:56:43;21.60;99.90
30399;DHT22;17195;50.838;7.214;2022-09-09T10:59:17;21.50;99.90
30399;DHT22;17195;50.838;7.214;2022-09-09T11:01:51;21.40;99.90
30399;DHT22;17195;50.838;7.214;2022-09-09T11:04:32;21.40;99.90
30399;DHT22;17195;50.838;7.214;2022-09-09T11:07:05;21.50;99.90
30399;DHT22;17195;50.838;7.214;2022-09-09T11:09:35;21.60;99.90
30399;DHT22;17195;50.838;7.214;2022-09-09T11:12:02;21.70;99.90
30399;DHT22;17195;50.838;7.214;2022-09-09T11:14:47;22.00;99.90
30399;DHT22;17195;50.838;7.214;2022-09-09T11:17:33;22.20;99.90
30399;DHT22;17195;50.838;7.214;2022-09-09T11:20:01;22.50;99.90
30399;DHT22;17195;50.838;7.214;2022-09-09T11:22:40;22.70;99.90
30399;DHT22;17195;50.838;7.214;2022-09-09T11:25:10;22.60;99.90
30399;DHT22;17195;50.838;7.214;2022-09-09T11:33:34;22.50;99.90
30399;DHT22;17195;50.838;7.214;2022-09-09T11:41:35;22.50;99.90
30399;DHT22;17195;50.838;7.214;2022-09-09T11:44:17;22.30;99.90
30399;DHT22;17195;50.838;7.214;2022-09-09T11:46:49;22.20;99.90
30399;DHT22;17195;50.838;7.214;2022-09-09T11:49:29;22.10;99.90
30399;DHT22;17195;50.838;7.214;2022-09-09T11:52:13;22.00;99.90
30399;DHT22;17195;50.838;7.214;2022-09-09T11:54:49;21.80;99.90
30399;DHT22;17195;50.838;7.214;2022-09-09T11:57:35;21.70;99.90
30399;DHT22;17195;50.838;7.214;2022-09-09T12:00:03;21.60;99.90
30399;DHT22;17195;50.838;7.214;2022-09-09T12:02:29;21.60;99.90
30399;DHT22;17195;50.838;7.214;2022-09-09T12:05:12;21.70;99.90
30399;DHT22;17195;50.838;7.214;2022-09-09T12:07:45;21.70;99.90
30399;DHT22;17195;50.838;7.214;2022-09-09T12:10:32;21.70;99.90
30399;DHT22;17195;50.838;7.214;2022-09-09T12:13:18;21.70;99.90
30399;DHT22;17195;50.838;7.214;2022-09-09T12:15:52;21.70;99.90
30399;DHT22;17195;50.838;7.214;2022-09-09T12:18:33;21.70;99.90
30399;DHT22;17195;50.838;7.214;2022-09-09T12:23:49;21.50;99.90
30399;DHT22;17195;50.838;7.214;2022-09-09T12:26:41;21.40;99.90
30399;DHT22;17195;50.838;7.214;2022-09-09T12:29:32;21.40;99.90
30399;DHT22;17195;50.838;7.214;2022-09-09T12:32:11;21.40;99.90
30399;DHT22;17195;50.838;7.214;2022-09-09T12:34:47;21.50;99.90
30399;DHT22;17195;50.838;7.214;2022-09-09T12:37:32;21.70;99.90
30399;DHT22;17195;50.838;7.214;2022-09-09T12:40:02;21.80;99.90
30399;DHT22;17195;50.838;7.214;2022-09-09T12:42:29;21.80;99.90
30399;DHT22;17195;50.838;7.214;2022-09-09T12:44:59;21.80;99.90
30399;DHT22;17195;50.838;7.214;2022-09-09T12:47:56;21.60;99.90
30399;DHT22;17195;50.838;7.214;2022-09-09T12:50:26;21.50;99.90
30399;DHT22;17195;50.838;7.214;2022-09-09T12:53:10;21.50;99.90
30399;DHT22;17195;50.838;7.214;2022-09-09T12:55:38;21.50;99.90
30399;DHT22;17195;50.838;7.214;2022-09-09T12:58:06;21.50;99.90
30399;DHT22;17195;50.838;7.214;2022-09-09T13:00:33;21.70;99.90
30399;DHT22;17195;50.838;7.214;2022-09-09T13:03:01;21.90;99.90
30399;DHT22;17195;50.838;7.214;2022-09-09T13:05:33;22.10;99.90
30399;DHT22;17195;50.838;7.214;2022-09-09T13:08:07;22.20;99.90
30399;DHT22;17195;50.838;7.214;2022-09-09T13:10:49;22.20;99.90
30399;DHT22;17195;50.838;7.214;2022-09-09T13:13:20;22.10;99.90
30399;DHT22;17195;50.838;7.214;2022-09-09T13:15:54;22.00;99.90
30399;DHT22;17195;50.838;7.214;2022-09-09T13:18:25;21.90;99.90
30399;DHT22;17195;50.838;7.214;2022-09-09T13:20:52;21.70;99.90
30399;DHT22;17195;50.838;7.214;2022-09-09T13:23:19;21.50;99.90
30399;DHT22;17195;50.838;7.214;2022-09-09T13:25:57;21.40;99.90
30399;DHT22;17195;50.838;7.214;2022-09-09T13:28:26;21.30;99.90
30399;DHT22;17195;50.838;7.214;2022-09-09T13:31:03;21.20;99.90
30399;DHT22;17195;50.838;7.214;2022-09-09T13:33:39;21.10;99.90
30399;DHT22;17195;50.838;7.214;2022-09-09T13:36:09;21.20;99.90
30399;DHT22;17195;50.838;7.214;2022-09-09T13:38:38;21.30;99.90
30399;DHT22;17195;50.838;7.214;2022-09-09T13:41:08;21.50;99.90
30399;DHT22;17195;50.838;7.214;2022-09-09T13:43:42;21.60;99.90
30399;DHT22;17195;50.838;7.214;2022-09-09T13:46:34;21.70;99.90
30399;DHT22;17195;50.838;7.214;2022-09-09T13:49:22;21.70;99.90
30399;DHT22;17195;50.838;7.214;2022-09-09T13:51:49;21.90;99.90
30399;DHT22;17195;50.838;7.214;2022-09-09T13:54:18;22.30;99.90
30399;DHT22;17195;50.838;7.214;2022-09-09T13:56:45;22.70;99.90
30399;DHT22;17195;50.838;7.214;2022-09-09T13:59:16;23.00;99.90
30399;DHT22;17195;50.838;7.214;2022-09-09T14:01:42;23.20;99.90
30399;DHT22;17195;50.838;7.214;2022-09-09T14:04:09;23.30;99.90
30399;DHT22;17195;50.838;7.214;2022-09-09T14:06:36;23.30;99.90
30399;DHT22;17195;50.838;7.214;2022-09-09T14:09:06;23.30;99.90
30399;DHT22;17195;50.838;7.214;2022-09-09T14:11:32;23.20;99.90
30399;DHT22;17195;50.838;7.214;2022-09-09T14:13:58;23.10;99.90
30399;DHT22;17195;50.838;7.214;2022-09-09T14:16:24;22.90;99.90
30399;DHT22;17195;50.838;7.214;2022-09-09T14:18:52;22.70;99.90
30399;DHT22;17195;50.838;7.214;2022-09-09T14:21:17;22.70;99.90
30399;DHT22;17195;50.838;7.214;2022-09-09T14:23:43;22.80;99.90
30399;DHT22;17195;50.838;7.214;2022-09-09T14:26:09;22.90;99.90
30399;DHT22;17195;50.838;7.214;2022-09-09T14:28:36;22.70;99.90
30399;DHT22;17195;50.838;7.214;2022-09-09T14:31:03;22.40;99.90
30399;DHT22;17195;50.838;7.214;2022-09-09T14:33:29;22.20;99.90
30399;DHT22;17195;50.838;7.214;2022-09-09T14:35:57;22.10;99.90
30399;DHT22;17195;50.838;7.214;2022-09-09T14:38:22;22.00;99.90
30399;DHT22;17195;50.838;7.214;2022-09-09T14:40:48;21.90;99.90
30399;DHT22;17195;50.838;7.214;2022-09-09T14:43:14;21.90;99.90
30399;DHT22;17195;50.838;7.214;2022-09-09T14:45:40;22.00;99.90
30399;DHT22;17195;50.838;7.214;2022-09-09T14:48:05;22.10;99.90
30399;DHT22;17195;50.838;7.214;2022-09-09T14:50:31;22.00;99.90
30399;DHT22;17195;50.838;7.214;2022-09-09T14:52:56;22.00;99.90
30399;DHT22;17195;50.838;7.214;2022-09-09T14:55:22;21.90;99.90
30399;DHT22;17195;50.838;7.214;2022-09-09T14:57:47;21.90;99.90
30399;DHT22;17195;50.838;7.214;2022-09-09T15:00:13;22.10;99.90
30399;DHT22;17195;50.838;7.214;2022-09-09T15:02:39;22.40;99.90
30399;DHT22;17195;50.838;7.214;2022-09-09T15:05:05;22.50;99.90
30399;DHT22;17195;50.838;7.214;2022-09-09T15:07:31;22.60;99.90
30399;DHT22;17195;50.838;7.214;2022-09-09T15:09:57;22.40;99.90
30399;DHT22;17195;50.838;7.214;2022-09-09T15:12:23;22.20;99.90
30399;DHT22;17195;50.838;7.214;2022-09-09T15:14:49;22.00;99.90
30399;DHT22;17195;50.838;7.214;2022-09-09T15:17:16;21.80;99.90
30399;DHT22;17195;50.838;7.214;2022-09-09T15:19:41;21.70;99.90
30399;DHT22;17195;50.838;7.214;2022-09-09T15:22:08;21.70;99.90
30399;DHT22;17195;50.838;7.214;2022-09-09T15:24:34;21.60;99.90
30399;DHT22;17195;50.838;7.214;2022-09-09T15:27:01;21.50;99.90
30399;DHT22;17195;50.838;7.214;2022-09-09T15:29:26;21.30;99.90
30399;DHT22;17195;50.838;7.214;2022-09-09T15:31:53;21.10;99.90
30399;DHT22;17195;50.838;7.214;2022-09-09T15:34:20;20.90;99.90
30399;DHT22;17195;50.838;7.214;2022-09-09T15:36:45;20.80;99.90
30399;DHT22;17195;50.838;7.214;2022-09-09T15:39:16;20.60;99.90
30399;DHT22;17195;50.838;7.214;2022-09-09T15:41:43;20.50;99.90
30399;DHT22;17195;50.838;7.214;2022-09-09T15:44:09;20.10;99.90
30399;DHT22;17195;50.838;7.214;2022-09-09T15:46:40;19.70;99.90
30399;DHT22;17195;50.838;7.214;2022-09-09T15:49:17;18.80;99.90
30399;DHT22;17195;50.838;7.214;2022-09-09T15:51:50;17.00;99.90
30399;DHT22;17195;50.838;7.214;2022-09-09T15:54:17;16.40;99.90
30399;DHT22;17195;50.838;7.214;2022-09-09T15:56:44;16.00;99.90
30399;DHT22;17195;50.838;7.214;2022-09-09T15:59:10;15.90;99.90
30399;DHT22;17195;50.838;7.214;2022-09-09T16:01:36;15.60;99.90
30399;DHT22;17195;50.838;7.214;2022-09-09T16:04:04;15.50;99.90
30399;DHT22;17195;50.838;7.214;2022-09-09T16:06:30;15.70;99.90
30399;DHT22;17195;50.838;7.214;2022-09-09T16:08:58;15.70;99.90
30399;DHT22;17195;50.838;7.214;2022-09-09T16:11:35;15.80;99.90
30399;DHT22;17195;50.838;7.214;2022-09-09T16:14:03;15.80;99.90
30399;DHT22;17195;50.838;7.214;2022-09-09T16:16:29;15.80;99.90
30399;DHT22;17195;50.838;7.214;2022-09-09T16:18:57;15.70;99.90
30399;DHT22;17195;50.838;7.214;2022-09-09T16:21:28;15.70;99.90
30399;DHT22;17195;50.838;7.214;2022-09-09T16:23:55;15.80;99.90
30399;DHT22;17195;50.838;7.214;2022-09-09T16:26:22;15.90;99.90
30399;DHT22;17195;50.838;7.214;2022-09-09T16:28:48;16.00;99.90
30399;DHT22;17195;50.838;7.214;2022-09-09T16:31:16;16.10;99.90
30399;DHT22;17195;50.838;7.214;2022-09-09T16:33:43;16.20;99.90
30399;DHT22;17195;50.838;7.214;2022-09-09T16:36:11;16.20;99.90
30399;DHT22;17195;50.838;7.214;2022-09-09T16:38:38;16.30;99.90
30399;DHT22;17195;50.838;7.214;2022-09-09T16:41:05;16.30;99.90
30399;DHT22;17195;50.838;7.214;2022-09-09T16:43:34;16.40;99.90
30399;DHT22;17195;50.838;7.214;2022-09-09T16:46:02;16.40;99.90
30399;DHT22;17195;50.838;7.214;2022-09-09T16:48:33;16.50;99.90
30399;DHT22;17195;50.838;7.214;2022-09-09T16:51:09;16.50;99.90
30399;DHT22;17195;50.838;7.214;2022-09-09T16:53:36;16.50;99.90
30399;DHT22;17195;50.838;7.214;2022-09-09T16:56:06;16.50;99.90
30399;DHT22;17195;50.838;7.214;2022-09-09T16:58:32;16.50;99.90
30399;DHT22;17195;50.838;7.214;2022-09-09T17:00:58;16.50;99.90
30399;DHT22;17195;50.838;7.214;2022-09-09T17:03:24;16.60;99.90
30399;DHT22;17195;50.838;7.214;2022-09-09T17:05:49;16.70;99.90
30399;DHT22;17195;50.838;7.214;2022-09-09T17:08:15;16.80;99.90
30399;DHT22;17195;50.838;7.214;2022-09-09T17:10:41;17.00;99.90
30399;DHT22;17195;50.838;7.214;2022-09-09T17:13:07;17.10;99.90
30399;DHT22;17195;50.838;7.214;2022-09-09T17:15:33;17.20;99.90
30399;DHT22;17195;50.838;7.214;2022-09-09T17:17:59;17.10;99.90
30399;DHT22;17195;50.838;7.214;2022-09-09T17:20:25;17.20;99.90
30399;DHT22;17195;50.838;7.214;2022-09-09T17:22:50;17.10;99.90
30399;DHT22;17195;50.838;7.214;2022-09-09T17:25:16;17.00;99.90
30399;DHT22;17195;50.838;7.214;2022-09-09T17:27:42;17.00;99.90
30399;DHT22;17195;50.838;7.214;2022-09-09T17:30:08;17.00;99.90